METAR Data
IDs: Format: Raw Decoded Include TAF

Data at: 0235 UTC 29 Nov 2020

KRZL 290215Z AUTO 21008KT 10SM CLR 01/00 A3013 RMK AO2